createdAt,value
2017-11-15T00:01:02.009Z,101611.47
2017-11-15T00:02:04.496Z,101615.19
2017-11-15T00:03:06.984Z,101619.59
2017-11-15T00:04:09.473Z,101620.58
2017-11-15T00:05:11.953Z,101617.63
2017-11-15T00:06:14.412Z,101624.49
2017-11-15T00:07:16.909Z,101621.96
2017-11-15T00:08:19.379Z,101621.16
2017-11-15T00:09:21.857Z,101615.78
2017-11-15T00:10:24.327Z,101623.00
2017-11-15T00:11:26.788Z,101617.66
2017-11-15T00:12:29.288Z,101623.55
2017-11-15T00:13:31.757Z,101626.37
2017-11-15T00:14:34.228Z,101622.14
2017-11-15T00:15:36.687Z,101622.42
2017-11-15T00:16:39.155Z,101623.57
2017-11-15T00:17:41.666Z,101623.52
2017-11-15T00:18:44.138Z,101630.52
2017-11-15T00:19:46.603Z,101625.84
2017-11-15T00:20:49.063Z,101628.62
2017-11-15T00:21:51.523Z,101633.17
2017-11-15T00:22:54.042Z,101631.66
2017-11-15T00:23:56.516Z,101633.06
2017-11-15T00:24:58.996Z,101634.44
2017-11-15T00:26:01.488Z,101639.11
2017-11-15T00:27:03.967Z,101634.21
2017-11-15T00:28:06.483Z,101632.68
2017-11-15T00:29:08.958Z,101633.92
2017-11-15T00:30:11.446Z,101636.84
2017-11-15T00:31:13.929Z,101635.84
2017-11-15T00:32:16.443Z,101633.29
2017-11-15T00:33:18.933Z,101632.84
2017-11-15T00:34:21.396Z,101631.52
2017-11-15T00:35:23.878Z,101632.61
2017-11-15T00:36:26.359Z,101628.38
2017-11-15T00:37:28.827Z,101627.29
2017-11-15T00:38:31.330Z,101624.55
2017-11-15T00:39:33.827Z,101626.83
2017-11-15T00:40:36.287Z,101621.91
2017-11-15T00:41:38.752Z,101625.38
2017-11-15T00:42:41.219Z,101630.57
2017-11-15T00:43:43.722Z,101626.30
2017-11-15T00:44:46.212Z,101631.13
2017-11-15T00:45:48.675Z,101626.81
2017-11-15T00:46:51.149Z,101629.14
2017-11-15T00:47:53.629Z,101622.44
2017-11-15T00:48:56.127Z,101632.35
2017-11-15T00:49:59.159Z,101633.96
2017-11-15T00:51:01.633Z,101633.05
2017-11-15T00:52:04.109Z,101634.61
2017-11-15T00:53:06.595Z,101633.63
2017-11-15T00:54:09.090Z,101633.25
2017-11-15T00:55:11.572Z,101636.05
2017-11-15T00:56:14.050Z,101635.84
2017-11-15T00:57:16.512Z,101633.66
2017-11-15T00:58:18.980Z,101631.14
2017-11-15T00:59:21.444Z,101631.95
2017-11-15T01:00:23.928Z,101634.95
2017-11-15T01:01:26.401Z,101632.04
2017-11-15T01:02:28.863Z,101634.83
2017-11-15T01:03:31.332Z,101639.64
2017-11-15T01:04:33.819Z,101642.23
2017-11-15T01:05:36.302Z,101643.50
2017-11-15T01:06:38.779Z,101636.22
2017-11-15T01:07:41.263Z,101640.59
2017-11-15T01:08:43.727Z,101638.58
2017-11-15T01:09:46.196Z,101641.48
2017-11-15T01:10:48.663Z,101645.78
2017-11-15T01:11:51.144Z,101635.70
2017-11-15T01:12:53.619Z,101638.28
2017-11-15T01:13:56.081Z,101633.22
2017-11-15T01:14:58.548Z,101633.81
2017-11-15T01:16:01.030Z,101633.25
2017-11-15T01:17:03.497Z,101637.44
2017-11-15T01:18:05.977Z,101641.22
2017-11-15T01:19:08.456Z,101638.69
2017-11-15T01:20:10.926Z,101637.75
2017-11-15T01:21:13.421Z,101635.72
2017-11-15T01:22:15.893Z,101636.09
2017-11-15T01:23:18.374Z,101636.30
2017-11-15T01:24:20.855Z,101633.64
2017-11-15T01:25:23.342Z,101632.94
2017-11-15T01:26:25.818Z,101630.14
2017-11-15T01:27:28.290Z,101633.39
2017-11-15T01:28:30.769Z,101627.61
2017-11-15T01:29:33.241Z,101622.51
2017-11-15T01:30:35.711Z,101627.60
2017-11-15T01:31:38.203Z,101628.12
2017-11-15T01:32:40.677Z,101623.52
2017-11-15T01:33:43.162Z,101630.08
2017-11-15T01:34:45.658Z,101632.50
2017-11-15T01:35:48.128Z,101635.66
2017-11-15T01:36:50.611Z,101633.87
2017-11-15T01:37:53.098Z,101633.33
2017-11-15T01:38:55.586Z,101634.95
2017-11-15T01:39:58.391Z,101627.06
2017-11-15T01:41:00.866Z,101624.83
2017-11-15T01:42:03.330Z,101631.23
2017-11-15T01:43:05.810Z,101632.12
2017-11-15T01:44:08.298Z,101636.25
2017-11-15T01:45:10.761Z,101635.55
2017-11-15T01:46:13.246Z,101634.27
2017-11-15T01:47:15.712Z,101634.27
2017-11-15T01:48:18.215Z,101632.90
2017-11-15T01:49:20.685Z,101632.32
2017-11-15T01:50:23.169Z,101633.75
2017-11-15T01:51:25.645Z,101633.69
2017-11-15T01:52:28.121Z,101630.08
2017-11-15T01:53:30.579Z,101631.88
2017-11-15T01:54:33.062Z,101627.38
2017-11-15T01:55:35.542Z,101629.84
2017-11-15T01:56:38.012Z,101629.47
2017-11-15T01:57:40.478Z,101624.53
2017-11-15T01:58:42.954Z,101621.78
2017-11-15T01:59:45.441Z,101622.38
2017-11-15T02:00:59.648Z,101625.80
2017-11-15T02:02:02.130Z,101624.49
2017-11-15T02:03:04.592Z,101621.79
2017-11-15T02:04:07.080Z,101620.97
2017-11-15T02:05:09.551Z,101622.31
2017-11-15T02:06:12.036Z,101626.47
2017-11-15T02:07:14.505Z,101623.46
2017-11-15T02:08:16.983Z,101625.99
2017-11-15T02:09:19.456Z,101623.39
2017-11-15T02:10:21.918Z,101626.43
2017-11-15T02:11:24.398Z,101626.14
2017-11-15T02:12:26.878Z,101622.49
2017-11-15T02:13:29.339Z,101624.73
2017-11-15T02:14:31.803Z,101623.91
2017-11-15T02:15:34.269Z,101621.67
2017-11-15T02:16:36.742Z,101620.43
2017-11-15T02:17:39.204Z,101623.36
2017-11-15T02:18:41.676Z,101608.02
2017-11-15T02:19:44.165Z,101614.17
2017-11-15T02:20:46.643Z,101610.62
2017-11-15T02:21:49.126Z,101602.24
2017-11-15T02:22:51.608Z,101605.17
2017-11-15T02:23:54.081Z,101603.53
2017-11-15T02:24:56.564Z,101606.43
2017-11-15T02:25:59.048Z,101604.53
2017-11-15T02:27:01.527Z,101603.47
2017-11-15T02:28:03.997Z,101601.25
2017-11-15T02:29:06.492Z,101596.87
2017-11-15T02:30:08.965Z,101600.74
2017-11-15T02:31:11.473Z,101598.52
2017-11-15T02:32:13.964Z,101595.48
2017-11-15T02:33:16.454Z,101598.66
2017-11-15T02:34:18.915Z,101599.12
2017-11-15T02:35:21.378Z,101595.42
2017-11-15T02:36:23.853Z,101591.70
2017-11-15T02:37:26.344Z,101593.63
2017-11-15T02:38:28.829Z,101592.96
2017-11-15T02:39:31.295Z,101588.81
2017-11-15T02:40:33.786Z,101590.50
2017-11-15T02:41:36.259Z,101585.77
2017-11-15T02:42:38.739Z,101588.48
2017-11-15T02:43:41.222Z,101593.35
2017-11-15T02:44:43.692Z,101588.03
2017-11-15T02:45:46.170Z,101587.67
2017-11-15T02:46:48.636Z,101586.02
2017-11-15T02:47:51.104Z,101586.50
2017-11-15T02:48:53.581Z,101590.23
2017-11-15T02:49:56.040Z,101585.06
2017-11-15T02:50:58.500Z,101590.05
2017-11-15T02:52:00.998Z,101592.73
2017-11-15T02:53:03.464Z,101582.77
2017-11-15T02:54:05.965Z,101588.03
2017-11-15T02:55:08.439Z,101586.89
2017-11-15T02:56:10.919Z,101585.38
2017-11-15T02:57:13.395Z,101584.83
2017-11-15T02:58:15.887Z,101585.81
2017-11-15T02:59:18.349Z,101585.19
2017-11-15T03:00:20.825Z,101587.89
2017-11-15T03:01:23.306Z,101592.32
2017-11-15T03:02:25.771Z,101592.45
2017-11-15T03:03:28.232Z,101593.09
2017-11-15T03:04:30.717Z,101594.67
2017-11-15T03:05:33.179Z,101603.66
2017-11-15T03:06:35.644Z,101600.13
2017-11-15T03:07:38.109Z,101599.02
2017-11-15T03:08:40.585Z,101601.59
2017-11-15T03:09:43.054Z,101599.50
2017-11-15T03:10:45.516Z,101598.36
2017-11-15T03:11:48.027Z,101602.13
2017-11-15T03:12:50.507Z,101593.29
2017-11-15T03:13:52.990Z,101595.30
2017-11-15T03:14:55.473Z,101603.95
2017-11-15T03:15:57.947Z,101600.33
2017-11-15T03:17:00.418Z,101597.84
2017-11-15T03:18:02.898Z,101601.92
2017-11-15T03:19:05.378Z,101602.86
2017-11-15T03:20:07.858Z,101595.31
2017-11-15T03:21:15.070Z,101597.94
2017-11-15T03:22:17.547Z,101593.45
2017-11-15T03:23:20.020Z,101590.64
2017-11-15T03:24:22.489Z,101595.70
2017-11-15T03:25:24.952Z,101597.27
2017-11-15T03:26:27.576Z,101594.56
2017-11-15T03:27:30.061Z,101592.34
2017-11-15T03:28:32.538Z,101596.34
2017-11-15T03:29:35.008Z,101596.02
2017-11-15T03:30:37.505Z,101596.48
2017-11-15T03:31:39.993Z,101595.80
2017-11-15T03:32:42.540Z,101592.68
2017-11-15T03:33:45.015Z,101597.31
2017-11-15T03:34:47.486Z,101597.98
2017-11-15T03:35:49.952Z,101598.94
2017-11-15T03:36:52.416Z,101597.23
2017-11-15T03:37:54.883Z,101598.28
2017-11-15T03:38:57.358Z,101597.14
2017-11-15T03:39:59.841Z,101591.69
2017-11-15T03:41:02.335Z,101594.41
2017-11-15T03:42:04.820Z,101593.20
2017-11-15T03:43:07.301Z,101596.09
2017-11-15T03:44:09.768Z,101592.47
2017-11-15T03:45:12.256Z,101597.66
2017-11-15T03:46:14.746Z,101591.73
2017-11-15T03:47:17.211Z,101592.80
2017-11-15T03:48:19.694Z,101598.16
2017-11-15T03:49:22.178Z,101591.59
2017-11-15T03:50:24.645Z,101594.32
2017-11-15T03:51:27.108Z,101593.13
2017-11-15T03:52:29.568Z,101593.69
2017-11-15T03:53:32.050Z,101594.07
2017-11-15T03:54:34.529Z,101586.52
2017-11-15T03:55:37.019Z,101587.02
2017-11-15T03:56:39.510Z,101591.81
2017-11-15T03:57:41.986Z,101588.53
2017-11-15T03:58:44.452Z,101588.94
2017-11-15T03:59:46.925Z,101587.38
2017-11-15T04:00:49.424Z,101591.56
2017-11-15T04:01:51.902Z,101593.99
2017-11-15T04:02:54.381Z,101593.66
2017-11-15T04:03:56.844Z,101592.92
2017-11-15T04:04:59.313Z,101589.58
2017-11-15T04:06:01.806Z,101593.31
2017-11-15T04:07:04.302Z,101591.79
2017-11-15T04:08:06.764Z,101591.18
2017-11-15T04:09:09.252Z,101592.20
2017-11-15T04:10:11.721Z,101595.33
2017-11-15T04:11:14.214Z,101594.61
2017-11-15T04:12:16.680Z,101599.36
2017-11-15T04:13:19.160Z,101601.58
2017-11-15T04:14:21.633Z,101597.29
2017-11-15T04:15:24.105Z,101596.89
2017-11-15T04:16:26.611Z,101599.67
2017-11-15T04:17:29.076Z,101602.45
2017-11-15T04:18:31.557Z,101602.41
2017-11-15T04:19:34.038Z,101602.38
2017-11-15T04:20:36.503Z,101604.76
2017-11-15T04:21:39.007Z,101598.02
2017-11-15T04:22:41.469Z,101597.62
2017-11-15T04:23:43.941Z,101599.13
2017-11-15T04:24:46.443Z,101600.51
2017-11-15T04:25:48.928Z,101599.97
2017-11-15T04:26:51.432Z,101601.94
2017-11-15T04:27:53.914Z,101598.34
2017-11-15T04:28:56.408Z,101593.59
2017-11-15T04:29:59.681Z,101595.95
2017-11-15T04:31:02.162Z,101593.13
2017-11-15T04:32:04.648Z,101593.40
2017-11-15T04:33:07.120Z,101594.00
2017-11-15T04:34:09.579Z,101593.75
2017-11-15T04:35:12.047Z,101595.30
2017-11-15T04:36:14.510Z,101592.05
2017-11-15T04:37:17.000Z,101597.80
2017-11-15T04:38:19.460Z,101589.48
2017-11-15T04:39:21.939Z,101593.52
2017-11-15T04:40:24.416Z,101596.61
2017-11-15T04:41:26.903Z,101593.16
2017-11-15T04:42:29.401Z,101591.05
2017-11-15T04:43:31.881Z,101588.53
2017-11-15T04:44:34.363Z,101585.17
2017-11-15T04:45:39.994Z,101591.33
2017-11-15T04:46:42.456Z,101596.51
2017-11-15T04:47:44.958Z,101590.28
2017-11-15T04:48:47.440Z,101593.61
2017-11-15T04:49:49.910Z,101597.58
2017-11-15T04:50:52.393Z,101598.28
2017-11-15T04:51:54.867Z,101594.47
2017-11-15T04:52:57.424Z,101595.81
2017-11-15T04:53:59.899Z,101601.30
2017-11-15T04:55:02.364Z,101593.11
2017-11-15T04:56:04.845Z,101593.20
2017-11-15T04:57:07.308Z,101593.08
2017-11-15T04:58:09.810Z,101594.66
2017-11-15T04:59:12.287Z,101591.34
2017-11-15T05:00:14.761Z,101593.88
2017-11-15T05:01:17.251Z,101598.51
2017-11-15T05:02:19.711Z,101589.91
2017-11-15T05:03:22.211Z,101590.04
2017-11-15T05:04:25.461Z,101595.09
2017-11-15T05:05:28.136Z,101596.17
2017-11-15T05:06:30.628Z,101597.77
2017-11-15T05:07:33.129Z,101595.56
2017-11-15T05:08:36.171Z,101598.50
2017-11-15T05:09:38.696Z,101596.61
2017-11-15T05:10:41.195Z,101603.16
2017-11-15T05:11:43.669Z,101604.66
2017-11-15T05:12:46.148Z,101602.86
2017-11-15T05:13:48.650Z,101600.09
2017-11-15T05:14:51.107Z,101601.96
2017-11-15T05:15:53.585Z,101608.95
2017-11-15T05:16:56.338Z,101609.43
2017-11-15T05:17:58.804Z,101601.78
2017-11-15T05:19:01.321Z,101603.91
2017-11-15T05:20:03.788Z,101602.38
2017-11-15T05:21:06.261Z,101602.11
2017-11-15T05:22:08.769Z,101598.38
2017-11-15T05:23:11.257Z,101600.52
2017-11-15T05:24:13.769Z,101599.89
2017-11-15T05:25:16.247Z,101599.66
2017-11-15T05:26:18.717Z,101603.69
2017-11-15T05:27:21.189Z,101598.75
2017-11-15T05:28:23.671Z,101600.06
2017-11-15T05:29:26.190Z,101602.66
2017-11-15T05:30:28.655Z,101597.67
2017-11-15T05:31:31.135Z,101598.45
2017-11-15T05:32:33.606Z,101602.57
2017-11-15T05:33:36.068Z,101607.95
2017-11-15T05:34:38.530Z,101592.25
2017-11-15T05:35:41.001Z,101599.23
2017-11-15T05:36:43.489Z,101603.47
2017-11-15T05:37:45.970Z,101603.18
2017-11-15T05:38:48.450Z,101601.88
2017-11-15T05:39:50.932Z,101607.80
2017-11-15T05:40:53.415Z,101605.63
2017-11-15T05:41:55.901Z,101602.70
2017-11-15T05:42:58.380Z,101607.14
2017-11-15T05:44:00.859Z,101602.78
2017-11-15T05:45:03.343Z,101609.67
2017-11-15T05:46:05.822Z,101611.23
2017-11-15T05:47:08.287Z,101611.05
2017-11-15T05:48:10.772Z,101604.00
2017-11-15T05:49:13.244Z,101608.75
2017-11-15T05:50:15.714Z,101607.48
2017-11-15T05:51:18.209Z,101608.52
2017-11-15T05:52:20.711Z,101611.28
2017-11-15T05:53:23.205Z,101613.16
2017-11-15T05:54:25.680Z,101616.23
2017-11-15T05:55:28.140Z,101613.74
2017-11-15T05:56:30.644Z,101615.40
2017-11-15T05:57:33.125Z,101609.70
2017-11-15T05:58:35.639Z,101615.04
2017-11-15T05:59:38.110Z,101612.98
2017-11-15T06:00:40.579Z,101609.95
2017-11-15T06:01:43.042Z,101615.09
2017-11-15T06:02:45.519Z,101614.55
2017-11-15T06:03:48.006Z,101613.28
2017-11-15T06:04:50.490Z,101620.31
2017-11-15T06:05:52.951Z,101619.56
2017-11-15T06:06:55.439Z,101617.42
2017-11-15T06:07:57.913Z,101622.36
2017-11-15T06:09:00.386Z,101622.04
2017-11-15T06:10:02.887Z,101617.88
2017-11-15T06:11:05.380Z,101618.84
2017-11-15T06:12:07.853Z,101618.36
2017-11-15T06:13:10.330Z,101624.84
2017-11-15T06:14:12.873Z,101620.99
2017-11-15T06:15:15.425Z,101619.75
2017-11-15T06:16:17.825Z,101623.38
2017-11-15T06:17:20.289Z,101622.87
2017-11-15T06:18:22.812Z,101625.84
2017-11-15T06:19:25.261Z,101624.69
2017-11-15T06:20:27.743Z,101622.04
2017-11-15T06:21:30.223Z,101628.27
2017-11-15T06:22:32.830Z,101621.88
2017-11-15T06:23:35.329Z,101624.84
2017-11-15T06:24:37.767Z,101627.73
2017-11-15T06:25:40.213Z,101624.69
2017-11-15T06:26:42.781Z,101627.10
2017-11-15T06:27:45.237Z,101624.45
2017-11-15T06:28:47.755Z,101626.41
2017-11-15T06:29:50.309Z,101630.16
2017-11-15T06:30:52.838Z,101629.27
2017-11-15T06:31:55.316Z,101631.02
2017-11-15T06:32:57.710Z,101627.79
2017-11-15T06:34:00.179Z,101630.95
2017-11-15T06:35:02.657Z,101636.53
2017-11-15T06:36:05.212Z,101631.91
2017-11-15T06:37:07.739Z,101636.55
2017-11-15T06:38:10.141Z,101638.79
2017-11-15T06:39:12.612Z,101632.36
2017-11-15T06:40:15.077Z,101637.67
2017-11-15T06:41:17.556Z,101635.82
2017-11-15T06:42:20.046Z,101626.87
2017-11-15T06:43:22.526Z,101634.58
2017-11-15T06:44:24.998Z,101634.80
2017-11-15T06:45:27.482Z,101635.77
2017-11-15T06:46:29.982Z,101640.56
2017-11-15T06:47:32.469Z,101636.48
2017-11-15T06:48:34.951Z,101636.36
2017-11-15T06:49:37.429Z,101635.58
2017-11-15T06:50:39.914Z,101634.29
2017-11-15T06:51:42.396Z,101638.28
2017-11-15T06:52:44.911Z,101645.75
2017-11-15T06:53:47.377Z,101644.34
2017-11-15T06:54:49.856Z,101648.39
2017-11-15T06:55:52.324Z,101647.75
2017-11-15T06:56:54.808Z,101643.44
2017-11-15T06:57:57.300Z,101648.77
2017-11-15T06:58:59.764Z,101643.42
2017-11-15T07:00:02.238Z,101643.44
2017-11-15T07:01:04.713Z,101645.41
2017-11-15T07:02:07.196Z,101638.47
2017-11-15T07:03:09.675Z,101645.12
2017-11-15T07:04:12.149Z,101645.92
2017-11-15T07:05:14.615Z,101646.41
2017-11-15T07:06:17.085Z,101647.98
2017-11-15T07:07:19.600Z,101643.05
2017-11-15T07:08:22.084Z,101644.45
2017-11-15T07:09:24.551Z,101650.84
2017-11-15T07:10:27.033Z,101647.04
2017-11-15T07:11:29.578Z,101645.59
2017-11-15T07:12:32.051Z,101655.25
2017-11-15T07:13:34.529Z,101651.33
2017-11-15T07:14:36.995Z,101648.62
2017-11-15T07:15:39.475Z,101653.77
2017-11-15T07:16:41.949Z,101658.00
2017-11-15T07:17:44.426Z,101655.76
2017-11-15T07:18:46.953Z,101656.61
2017-11-15T07:19:49.465Z,101659.92
2017-11-15T07:20:51.971Z,101657.76
2017-11-15T07:21:54.454Z,101654.91
2017-11-15T07:22:56.985Z,101662.19
2017-11-15T07:23:59.493Z,101666.45
2017-11-15T07:25:02.011Z,101666.33
2017-11-15T07:26:04.475Z,101665.06
2017-11-15T07:27:06.959Z,101670.03
2017-11-15T07:28:09.440Z,101666.23
2017-11-15T07:29:11.927Z,101670.16
2017-11-15T07:30:14.404Z,101669.86
2017-11-15T07:31:16.885Z,101667.69
2017-11-15T07:32:19.367Z,101665.06
2017-11-15T07:33:21.847Z,101671.61
2017-11-15T07:34:24.335Z,101667.69
2017-11-15T07:35:26.862Z,101669.95
2017-11-15T07:36:29.343Z,101665.50
2017-11-15T07:37:31.831Z,101667.91
2017-11-15T07:38:34.292Z,101670.86
2017-11-15T07:39:36.761Z,101666.41
2017-11-15T07:40:39.255Z,101671.08
2017-11-15T07:41:41.737Z,101668.42
2017-11-15T07:42:44.237Z,101672.07
2017-11-15T07:43:46.753Z,101670.05
2017-11-15T07:44:49.235Z,101672.75
2017-11-15T07:45:51.701Z,101672.78
2017-11-15T07:46:54.201Z,101680.62
2017-11-15T07:47:56.685Z,101674.84
2017-11-15T07:48:59.176Z,101677.42
2017-11-15T07:50:01.645Z,101674.25
2017-11-15T07:51:04.121Z,101673.83
2017-11-15T07:52:06.592Z,101672.80
2017-11-15T07:53:09.077Z,101672.41
2017-11-15T07:54:11.575Z,101678.66
2017-11-15T07:55:14.062Z,101677.75
2017-11-15T07:56:16.545Z,101680.44
2017-11-15T07:57:19.035Z,101682.70
2017-11-15T07:58:21.510Z,101682.55
2017-11-15T07:59:24.010Z,101682.66
2017-11-15T08:00:26.494Z,101677.87
2017-11-15T08:01:28.959Z,101675.61
2017-11-15T08:02:31.421Z,101680.87
2017-11-15T08:03:33.880Z,101676.48
2017-11-15T08:04:36.368Z,101677.36
2017-11-15T08:05:38.847Z,101679.41
2017-11-15T08:06:41.372Z,101677.66
2017-11-15T08:07:43.836Z,101677.86
2017-11-15T08:08:46.305Z,101674.84
2017-11-15T08:09:48.798Z,101678.67
2017-11-15T08:10:51.285Z,101677.61
2017-11-15T08:11:53.772Z,101673.95
2017-11-15T08:12:56.238Z,101677.87
2017-11-15T08:13:58.712Z,101673.82
2017-11-15T08:15:01.231Z,101679.41
2017-11-15T08:16:04.089Z,101676.97
2017-11-15T08:17:06.539Z,101683.27
2017-11-15T08:18:09.019Z,101679.41
2017-11-15T08:19:11.520Z,101682.73
2017-11-15T08:20:14.012Z,101678.69
2017-11-15T08:21:16.503Z,101679.91
2017-11-15T08:22:18.992Z,101676.74
2017-11-15T08:23:21.757Z,101681.70
2017-11-15T08:24:24.238Z,101685.27
2017-11-15T08:25:26.768Z,101678.27
2017-11-15T08:26:29.246Z,101676.67
2017-11-15T08:27:31.741Z,101677.39
2017-11-15T08:28:34.204Z,101685.95
2017-11-15T08:29:36.698Z,101680.43
2017-11-15T08:30:39.206Z,101679.15
2017-11-15T08:31:41.697Z,101680.91
2017-11-15T08:32:44.160Z,101678.61
2017-11-15T08:33:46.631Z,101675.98
2017-11-15T08:34:49.112Z,101678.69
2017-11-15T08:35:51.617Z,101675.32
2017-11-15T08:36:54.099Z,101675.92
2017-11-15T08:37:56.568Z,101677.34
2017-11-15T08:38:59.028Z,101675.13
2017-11-15T08:40:01.507Z,101675.16
2017-11-15T08:41:03.998Z,101676.42
2017-11-15T08:42:06.494Z,101681.02
2017-11-15T08:43:08.956Z,101680.94
2017-11-15T08:44:11.442Z,101679.98
2017-11-15T08:45:13.946Z,101676.10
2017-11-15T08:46:16.458Z,101672.44
2017-11-15T08:47:18.939Z,101672.78
2017-11-15T08:48:21.421Z,101673.38
2017-11-15T08:49:23.902Z,101670.64
2017-11-15T08:50:26.377Z,101671.77
2017-11-15T08:51:28.873Z,101668.42
2017-11-15T08:52:31.362Z,101672.16
2017-11-15T08:53:33.836Z,101671.95
2017-11-15T08:54:36.318Z,101673.13
2017-11-15T08:55:38.798Z,101673.24
2017-11-15T08:56:41.311Z,101667.29
2017-11-15T08:57:43.791Z,101670.53
2017-11-15T08:58:46.261Z,101669.71
2017-11-15T08:59:48.729Z,101663.55
2017-11-15T09:00:51.219Z,101665.41
2017-11-15T09:01:53.753Z,101674.30
2017-11-15T09:02:56.239Z,101668.67
2017-11-15T09:03:58.718Z,101672.73
2017-11-15T09:05:01.224Z,101673.33
2017-11-15T09:06:03.703Z,101668.45
2017-11-15T09:07:06.206Z,101670.61
2017-11-15T09:08:08.681Z,101668.05
2017-11-15T09:09:11.147Z,101671.05
2017-11-15T09:10:13.622Z,101658.34
2017-11-15T09:11:16.116Z,101668.99
2017-11-15T09:12:18.622Z,101666.97
2017-11-15T09:13:21.096Z,101671.58
2017-11-15T09:14:23.576Z,101669.27
2017-11-15T09:15:26.053Z,101671.34
2017-11-15T09:16:28.544Z,101670.65
2017-11-15T09:17:31.110Z,101674.14
2017-11-15T09:18:33.586Z,101672.95
2017-11-15T09:19:36.073Z,101671.23
2017-11-15T09:20:38.554Z,101676.70
2017-11-15T09:21:41.030Z,101679.33
2017-11-15T09:22:43.516Z,101680.46
2017-11-15T09:23:46.007Z,101673.81
2017-11-15T09:24:48.489Z,101675.77
2017-11-15T09:25:51.111Z,101674.63
2017-11-15T09:26:53.581Z,101681.39
2017-11-15T09:27:56.065Z,101677.25
2017-11-15T09:28:58.532Z,101674.50
2017-11-15T09:30:02.919Z,101674.45
2017-11-15T09:31:05.376Z,101682.23
2017-11-15T09:32:07.848Z,101679.16
2017-11-15T09:33:10.353Z,101675.47
2017-11-15T09:34:12.839Z,101681.31
2017-11-15T09:35:15.306Z,101681.15
2017-11-15T09:36:17.763Z,101684.15
2017-11-15T09:37:20.236Z,101685.73
2017-11-15T09:38:22.725Z,101684.45
2017-11-15T09:39:25.202Z,101692.22
2017-11-15T09:40:27.690Z,101683.53
2017-11-15T09:41:30.169Z,101682.21
2017-11-15T09:42:32.628Z,101682.73
2017-11-15T09:43:35.133Z,101687.91
2017-11-15T09:44:37.603Z,101686.96
2017-11-15T09:45:40.068Z,101688.38
2017-11-15T09:46:42.532Z,101699.49
2017-11-15T09:47:45.012Z,101698.50
2017-11-15T09:48:47.515Z,101699.13
2017-11-15T09:49:49.987Z,101702.53
2017-11-15T09:50:52.479Z,101699.39
2017-11-15T09:51:54.939Z,101700.18
2017-11-15T09:52:57.400Z,101697.41
2017-11-15T09:53:59.888Z,101700.94
2017-11-15T09:55:02.375Z,101701.47
2017-11-15T09:56:04.837Z,101697.29
2017-11-15T09:57:07.299Z,101696.81
2017-11-15T09:58:09.764Z,101697.81
2017-11-15T09:59:12.248Z,101697.81
2017-11-15T10:00:14.725Z,101701.94
2017-11-15T10:01:17.202Z,101698.38
2017-11-15T10:02:19.684Z,101700.91
2017-11-15T10:03:22.145Z,101697.86
2017-11-15T10:04:24.656Z,101702.38
2017-11-15T10:05:27.125Z,101701.89
2017-11-15T10:06:29.588Z,101706.80
2017-11-15T10:07:32.118Z,101701.30
2017-11-15T10:08:34.613Z,101700.52
2017-11-15T10:09:37.105Z,101702.83
2017-11-15T10:10:39.581Z,101696.28
2017-11-15T10:11:42.064Z,101699.77
2017-11-15T10:12:44.535Z,101696.22
2017-11-15T10:13:47.001Z,101700.91
2017-11-15T10:14:49.488Z,101697.16
2017-11-15T10:15:51.953Z,101695.45
2017-11-15T10:17:08.779Z,101699.12
2017-11-15T10:18:11.335Z,101699.29
2017-11-15T10:19:13.831Z,101695.95
2017-11-15T10:20:16.340Z,101692.38
2017-11-15T10:21:19.331Z,101691.44
2017-11-15T10:22:21.818Z,101688.09
2017-11-15T10:23:24.378Z,101698.25
2017-11-15T10:24:26.876Z,101695.23
2017-11-15T10:25:29.405Z,101694.43
2017-11-15T10:26:31.863Z,101699.78
2017-11-15T10:27:34.325Z,101686.05
2017-11-15T10:28:36.816Z,101691.08
2017-11-15T10:29:39.507Z,101686.48
2017-11-15T10:30:41.993Z,101696.52
2017-11-15T10:31:44.457Z,101688.11
2017-11-15T10:32:46.938Z,101687.53
2017-11-15T10:33:49.411Z,101682.33
2017-11-15T10:34:51.872Z,101684.63
2017-11-15T10:35:54.359Z,101681.16
2017-11-15T10:36:56.830Z,101685.59
2017-11-15T10:37:59.307Z,101685.52
2017-11-15T10:39:01.772Z,101683.53
2017-11-15T10:40:04.232Z,101678.42
2017-11-15T10:41:06.754Z,101676.02
2017-11-15T10:42:09.231Z,101677.13
2017-11-15T10:43:11.704Z,101681.67
2017-11-15T10:44:14.181Z,101682.19
2017-11-15T10:45:16.659Z,101677.80
2017-11-15T10:46:19.149Z,101674.38
2017-11-15T10:47:21.617Z,101675.86
2017-11-15T10:48:24.076Z,101680.73
2017-11-15T10:49:26.540Z,101676.61
2017-11-15T10:50:28.996Z,101671.19
2017-11-15T10:51:31.519Z,101672.19
2017-11-15T10:52:33.984Z,101673.45
2017-11-15T10:53:36.462Z,101672.73
2017-11-15T10:54:38.938Z,101674.23
2017-11-15T10:55:41.418Z,101662.33
2017-11-15T10:56:43.926Z,101665.14
2017-11-15T10:57:46.398Z,101664.48
2017-11-15T10:58:48.899Z,101662.44
2017-11-15T10:59:51.384Z,101659.68
2017-11-15T11:00:53.846Z,101661.48
2017-11-15T11:01:56.333Z,101658.95
2017-11-15T11:02:58.804Z,101658.86
2017-11-15T11:04:01.316Z,101652.41
2017-11-15T11:05:03.788Z,101658.97
2017-11-15T11:06:06.278Z,101649.47
2017-11-15T11:07:08.765Z,101659.84
2017-11-15T11:08:11.244Z,101659.00
2017-11-15T11:09:13.721Z,101659.30
2017-11-15T11:10:16.184Z,101653.53
2017-11-15T11:11:18.662Z,101650.62
2017-11-15T11:12:21.159Z,101654.69
2017-11-15T11:13:23.629Z,101652.30
2017-11-15T11:14:26.128Z,101652.98
2017-11-15T11:15:28.588Z,101649.83
2017-11-15T11:16:31.134Z,101644.75
2017-11-15T11:17:33.635Z,101643.16
2017-11-15T11:18:36.134Z,101644.61
2017-11-15T11:19:38.614Z,101640.53
2017-11-15T11:20:41.080Z,101645.61
2017-11-15T11:21:43.555Z,101643.55
2017-11-15T11:22:46.060Z,101645.03
2017-11-15T11:23:48.569Z,101643.36
2017-11-15T11:24:51.046Z,101637.98
2017-11-15T11:25:53.524Z,101637.63
2017-11-15T11:26:56.002Z,101641.88
2017-11-15T11:27:58.489Z,101645.35
2017-11-15T11:29:00.967Z,101640.20
2017-11-15T11:30:03.454Z,101640.37
2017-11-15T11:31:05.951Z,101637.47
2017-11-15T11:32:08.416Z,101641.04
2017-11-15T11:33:11.007Z,101639.58
2017-11-15T11:34:13.476Z,101644.41
2017-11-15T11:35:15.958Z,101646.02
2017-11-15T11:36:18.442Z,101639.11
2017-11-15T11:37:20.904Z,101640.95
2017-11-15T11:38:23.419Z,101641.25
2017-11-15T11:39:25.896Z,101639.45
2017-11-15T11:40:28.355Z,101641.54
2017-11-15T11:41:30.826Z,101638.94
2017-11-15T11:42:33.301Z,101645.26
2017-11-15T11:43:35.791Z,101642.39
2017-11-15T11:44:38.305Z,101635.27
2017-11-15T11:45:40.781Z,101640.36
2017-11-15T11:46:43.260Z,101640.64
2017-11-15T11:47:45.728Z,101646.44
2017-11-15T11:48:48.270Z,101641.58
2017-11-15T11:49:50.764Z,101646.74
2017-11-15T11:50:53.232Z,101651.39
2017-11-15T11:51:55.691Z,101646.70
2017-11-15T11:52:58.167Z,101643.05
2017-11-15T11:54:00.667Z,101650.87